If you wish to contribute or participate in the discussions about articles you are invited to join SKYbrary as a registered user

 Actions

Arctic Village Airport

From SKYbrary Wiki

PARC
Airport
ICAO: PARC – IATA: ARC
Summary
Name Arctic Village Airport
Region North America
Territory Alaska US.gif
Location , Alaska
Serving Arctic Village
Elevation 637.642 m
2,092 ft
2,092 ft637.642 m
Type medium airport
Coordinates 68° 6' 52.92" N, 145° 34' 44.40" W
Runways
Designator Length Width Surface ROPS
2/20 1372 m4,501.312 ft
23 m75.459 ft
GVL /


METAR
Observation PARC 221256Z AUTO 34004KT 5SM HZ CLR M33/M36 A3004 RMK AO2 SLP283 T13331361 FZRANO
Station Arctic Village, Arctic Village Airport
Date/Time 22 February 2019 12:56:00
Wind direction 340°
Wind speed 04 kts
Lowest cloud amount n/a
Temperature
Dew point
Humidity 75%
QNH hPa
Weather condition haze